Minot Air Force Base
KMIB : now visible

Airfield :











YOU CAN JOIN US ON...

 
LOGIN :

Register | Disclaimer

   EN    FR    IT 

 









Legend :    VFR   Marginal VFR   IFR   Intensive IFR   Very Intensive IFR
Visi :
Ceiling :
>= 8 km
>= 3000ft
5 to 8 km
1000 to 3000 ft
1500m to 5 km
500 to 1000 ft
800 to 1500m
200 to 500 ft
< 800m
< 200 ft
Symbols :   Thunderstorms  Fog  Heavy snow  Heavy precipitations  Wind > 20 kt






- Airport Elevation : 1667 ft


KMIB - Minot Air Force Base

CURRENT METAR :
  • 161856Z AUTO 31007KT 10SM BKN130 12/01 A2976 RMK AO2 SLP085 T01220009 $

EXPIRED METARs :
  • 161756Z AUTO 26006KT 10SM BKN120 12/02 A2976 RMK AO2 SLP085 60005 T01190018 10119 20090 50009 $
  • 161656Z AUTO 28004KT 10SM BKN110 11/02 A2975 RMK AO2 SLP084 T01090022 $

TAF COR TAF KMIB
Valid from the 16 at 17:00 until the 17 at 23:00 UTC


161702Z 1617/1723 VRB06KT 9999 BKN100 QNH2974INS
BECMG 1618/1619 29009KT 9999 SCT060 BKN080 QNH2976INS
BECMG 1620/1621 28015G25KT 9000 -SHRA BKN080 QNH2978INS
BECMG 1623/1624 28009KT 9999 NSW FEW100 QNH2983INS
BECMG 1714/1715 29010G15KT 9999 FEW100 QNH3003INS TX18/1622Z TN07/1712Z
KZMP FIR / North America



MET'MAP, your aeronautical weather chart ! - Copyright ORBIFLY December 2007 - Disclaimer

ORBIFLY MET'MAP TEAM :

Programming & Development : Alexandra Zaïnal
Concept & original design : Baudouin d'Aumeries
Assistance for programming : Marc-Olivier Méhu
Technical & hardware support : Manuel Goepfert

Contact : metmap@orbifly.com




SOURCES & CREDITS :

   NOAA       Earth
Advisory